Carnival Splendor — 3EUS — position and weather

sailwx.info

Track history (hours):
 
Tides and Currents Weather Stations Pressure Air Temp Water Temp Dewpoint Dewpoint Depression Visibility Wind Speed Wind Dir Waves Ship Positions

Carnival Splendor

Last reported at 2017-Oct-17 11:00 UTC. Time now 2017-Oct-19 00:16 UTC.
Position N 19°30' W 076°18'.

Length 290 m; draft 8.3 m.

Type: Ship. MMSI: 372808000.

Wind from 050 at 10 knots

Barometer 1012.0 mb
Air temperature 28.6 ° C
Visibility: greater than 5.4 NM
Dewpoint 22.3 ° C
Water temperature 30.0 ° C

Date/timePositionNaut miles runAvg speedWind from/ knotsBaromVisibWave heightAir tempDewpointWater temp
2017-Oct-17 11:00N 19°30' W 076°18'1717.0 050 / 101012.0 5.4 28.622.330.0
2017-Oct-17 10:00N 19°30' W 076°00'27811.6 050 / 101011.0 5.4 28.322.630.0
2017-Oct-16 10:00N 23°24' W 073°18'175 7.3 080 / 151011.0 5.4 26.720.928.0
2017-Oct-15 10:00N 25°06' W 075°54'20018.9 090 / 201015.0 5.4 27.021.528.0
2017-Oct-14 23:26N 26°14' W 079°23'819.7
2017-Oct-14 23:00N 26°12' W 079°32'1019.6
2017-Oct-14 22:30N 26°11' W 079°42'1019.5
2017-Oct-14 22:00N 26°09' W 079°53'917.1
2017-Oct-14 21:30N 26°07' W 080°02'4 8.7
2017-Oct-14 21:00N 26°06' W 080°07'0 0.3
2017-Oct-14 20:24N 26°06' W 080°07'0 0.0
2017-Oct-14 20:00N 26°06' W 080°07'0 0.0
2017-Oct-14 19:21N 26°06' W 080°07'0 0.0
2017-Oct-14 19:00N 26°06' W 080°07'0 0.0
2017-Oct-14 18:29N 26°06' W 080°07'0 0.0
2017-Oct-14 17:56N 26°06' W 080°07'0 0.0
2017-Oct-14 17:29N 26°06' W 080°07'0 0.0
2017-Oct-14 16:50N 26°06' W 080°07'0 0.0
2017-Oct-14 16:28N 26°06' W 080°07'0 0.0
2017-Oct-14 15:58N 26°06' W 080°07'0 0.0
2017-Oct-14 15:25N 26°06' W 080°07'0 0.0
2017-Oct-14 14:52N 26°06' W 080°07'0 0.0
2017-Oct-14 14:18N 26°06' W 080°07'0 0.0
2017-Oct-14 14:00N 26°06' W 080°07'0 0.0
2017-Oct-14 13:27N 26°06' W 080°07'0 0.0
2017-Oct-14 12:54N 26°06' W 080°07'0 0.0
2017-Oct-14 12:21N 26°06' W 080°07'0 0.0
2017-Oct-14 11:59N 26°06' W 080°07'0 0.0
2017-Oct-14 11:29N 26°06' W 080°07'611.8
2017-Oct-14 11:00N 26°00' W 080°06'6699.4 120 / 151015.0 5.4 27.721.528.0
2017-Oct-14 10:59N 26°06' W 080°07'0 0.0
2017-Oct-14 10:23N 26°06' W 080°07'0 0.0
2017-Oct-14 10:00N 26°06' W 080°07'0 0.0
2017-Oct-14 09:30N 26°06' W 080°07'0 0.7
2017-Oct-14 09:00N 26°06' W 080°07'4 8.7
2017-Oct-14 08:30N 26°05' W 080°02'713.3
2017-Oct-14 08:00N 26°02' W 079°56'918.4
2017-Oct-14 07:30N 25°57' W 079°47'917.8
2017-Oct-14 07:00N 25°50' W 079°42'1121.2
2017-Oct-14 06:30N 25°39' W 079°41'1122.1
2017-Oct-14 06:00N 25°28' W 079°39'30320.2
2017-Oct-13 15:00N 21°06' W 076°54'7518.7 130 / 151013.010.8 28.022.127.0
2017-Oct-13 11:00N 21°24' W 075°36'2525.4 140 / 151012.0 5.4 28.323.929.0
2017-Oct-13 10:00N 21°12' W 075°12'107 2.2 140 / 151011.0 5.4 28.323.628.0
2017-Oct-11 09:00N 22°36' W 074°00'163 6.5 060 / 201008.0 5.4 26.020.127.0
2017-Oct-10 08:00N 24°36' W 076°00'101 4.4 060 / 301013.0 5.4 27.520.628.0
2017-Oct-09 09:00N 25°36' W 077°30'12012.3 100 / 301011.0 5.4 27.622.529.0
2017-Oct-08 23:13N 26°18' W 079°35'418.6
2017-Oct-08 23:00N 26°14' W 079°35'917.3
2017-Oct-08 22:31N 26°10' W 079°44'816.8
2017-Oct-08 22:01N 26°08' W 079°53'816.5
2017-Oct-08 21:31N 26°06' W 080°02'5 8.0
2017-Oct-08 20:56N 26°06' W 080°07'0 0.3
2017-Oct-08 20:28N 26°06' W 080°07'0 0.0
2017-Oct-08 19:58N 26°06' W 080°07'0 0.0
2017-Oct-08 19:28N 26°06' W 080°07'0 0.0
2017-Oct-08 18:55N 26°06' W 080°07'0 0.0
2017-Oct-08 18:30N 26°06' W 080°07'0 0.0
2017-Oct-08 18:00N 26°06' W 080°07'0 0.0
2017-Oct-08 17:30N 26°06' W 080°07'0 0.0
2017-Oct-08 16:54N 26°06' W 080°07'0 0.0
2017-Oct-08 16:27N 26°06' W 080°07'0 0.0
2017-Oct-08 15:59N 26°06' W 080°07'0 0.0
2017-Oct-08 15:29N 26°06' W 080°07'0 0.0
2017-Oct-08 14:59N 26°06' W 080°07'0 0.0
2017-Oct-08 14:23N 26°06' W 080°07'0 0.0
2017-Oct-08 13:56N 26°06' W 080°07'0 0.0
2017-Oct-08 13:28N 26°06' W 080°07'0 0.0
2017-Oct-08 12:58N 26°06' W 080°07'0 0.0
2017-Oct-08 12:28N 26°06' W 080°07'0 0.0
2017-Oct-08 11:55N 26°06' W 080°07'0 0.0
2017-Oct-08 11:31N 26°06' W 080°07'0 0.0
2017-Oct-08 11:00N 26°06' W 080°07'6467.6
2017-Oct-08 11:00N 26°00' W 080°06'611.9 170 / 101014.0 5.4 27.522.228.0
2017-Oct-08 10:30N 26°06' W 080°07'0 0.0
2017-Oct-08 10:01N 26°06' W 080°07'0 0.0
2017-Oct-08 09:30N 26°06' W 080°07'2 3.4
2017-Oct-08 09:01N 26°06' W 080°06'4 8.7
2017-Oct-08 08:31N 26°05' W 080°01'611.8
2017-Oct-08 08:00N 26°02' W 079°55'815.8
2017-Oct-08 07:30N 25°56' W 079°49'816.1
2017-Oct-08 07:00N 25°51' W 079°42'918.9
2017-Oct-08 06:30N 25°42' W 079°41'919.0
2017-Oct-08 06:00N 25°32' W 079°40'918.8
2017-Oct-08 05:30N 25°23' W 079°39'1019.0
2017-Oct-08 05:00N 25°13' W 079°39'2218.6
2017-Oct-08 03:48N 24°51' W 079°34'3017.8
2017-Oct-08 02:05N 24°22' W 079°25'418.0
2017-Oct-08 01:54N 24°19' W 079°24'718.2
2017-Oct-08 01:30N 24°12' W 079°22'24617.0
2017-Oct-07 11:00N 21°30' W 076°00'   150 / 101013.0 5.4 28.022.029.0
Track history (hours):
 
Tides and Currents Weather Stations Pressure Air Temp Water Temp Dewpoint Dewpoint Depression Visibility Wind Speed Wind Dir Waves Ship Positions

Carnival Splendor

Last reported at 2017-Oct-17 11:00 UTC. Time now 2017-Oct-19 00:16 UTC.
Position N 19°30' W 076°18'.

Length 290 m; draft 8.3 m.

Type: Ship. MMSI: 372808000.

Wind from 050 at 10 knots

Barometer 1012.0 mb
Air temperature 28.6 ° C
Visibility: greater than 5.4 NM
Dewpoint 22.3 ° C
Water temperature 30.0 ° C

Date/timePositionNaut miles runAvg speedWind from/ knotsBaromVisibWave heightAir tempDewpointWater temp
2017-Oct-17 11:00N 19°30' W 076°18'1717.0 050 / 101012.0 5.4 28.622.330.0
2017-Oct-17 10:00N 19°30' W 076°00'27811.6 050 / 101011.0 5.4 28.322.630.0
2017-Oct-16 10:00N 23°24' W 073°18'175 7.3 080 / 151011.0 5.4 26.720.928.0
2017-Oct-15 10:00N 25°06' W 075°54'20018.9 090 / 201015.0 5.4 27.021.528.0
2017-Oct-14 23:26N 26°14' W 079°23'819.7
2017-Oct-14 23:00N 26°12' W 079°32'1019.6
2017-Oct-14 22:30N 26°11' W 079°42'1019.5
2017-Oct-14 22:00N 26°09' W 079°53'917.1
2017-Oct-14 21:30N 26°07' W 080°02'4 8.7
2017-Oct-14 21:00N 26°06' W 080°07'0 0.3
2017-Oct-14 20:24N 26°06' W 080°07'0 0.0
2017-Oct-14 20:00N 26°06' W 080°07'0 0.0
2017-Oct-14 19:21N 26°06' W 080°07'0 0.0
2017-Oct-14 19:00N 26°06' W 080°07'0 0.0
2017-Oct-14 18:29N 26°06' W 080°07'0 0.0
2017-Oct-14 17:56N 26°06' W 080°07'0 0.0
2017-Oct-14 17:29N 26°06' W 080°07'0 0.0
2017-Oct-14 16:50N 26°06' W 080°07'0 0.0
2017-Oct-14 16:28N 26°06' W 080°07'0 0.0
2017-Oct-14 15:58N 26°06' W 080°07'0 0.0
2017-Oct-14 15:25N 26°06' W 080°07'0 0.0
2017-Oct-14 14:52N 26°06' W 080°07'0 0.0
2017-Oct-14 14:18N 26°06' W 080°07'0 0.0
2017-Oct-14 14:00N 26°06' W 080°07'0 0.0
2017-Oct-14 13:27N 26°06' W 080°07'0 0.0
2017-Oct-14 12:54N 26°06' W 080°07'0 0.0
2017-Oct-14 12:21N 26°06' W 080°07'0 0.0
2017-Oct-14 11:59N 26°06' W 080°07'0 0.0
2017-Oct-14 11:29N 26°06' W 080°07'611.8
2017-Oct-14 11:00N 26°00' W 080°06'6699.4 120 / 151015.0 5.4 27.721.528.0
2017-Oct-14 10:59N 26°06' W 080°07'0 0.0
2017-Oct-14 10:23N 26°06' W 080°07'0 0.0
2017-Oct-14 10:00N 26°06' W 080°07'0 0.0
2017-Oct-14 09:30N 26°06' W 080°07'0 0.7
2017-Oct-14 09:00N 26°06' W 080°07'4 8.7
2017-Oct-14 08:30N 26°05' W 080°02'713.3
2017-Oct-14 08:00N 26°02' W 079°56'918.4
2017-Oct-14 07:30N 25°57' W 079°47'917.8
2017-Oct-14 07:00N 25°50' W 079°42'1121.2
2017-Oct-14 06:30N 25°39' W 079°41'1122.1
2017-Oct-14 06:00N 25°28' W 079°39'30320.2
2017-Oct-13 15:00N 21°06' W 076°54'7518.7 130 / 151013.010.8 28.022.127.0
2017-Oct-13 11:00N 21°24' W 075°36'2525.4 140 / 151012.0 5.4 28.323.929.0
2017-Oct-13 10:00N 21°12' W 075°12'107 2.2 140 / 151011.0 5.4 28.323.628.0
2017-Oct-11 09:00N 22°36' W 074°00'163 6.5 060 / 201008.0 5.4 26.020.127.0
2017-Oct-10 08:00N 24°36' W 076°00'101 4.4 060 / 301013.0 5.4 27.520.628.0
2017-Oct-09 09:00N 25°36' W 077°30'12012.3 100 / 301011.0 5.4 27.622.529.0
2017-Oct-08 23:13N 26°18' W 079°35'418.6
2017-Oct-08 23:00N 26°14' W 079°35'917.3
2017-Oct-08 22:31N 26°10' W 079°44'816.8
2017-Oct-08 22:01N 26°08' W 079°53'816.5
2017-Oct-08 21:31N 26°06' W 080°02'5 8.0
2017-Oct-08 20:56N 26°06' W 080°07'0 0.3
2017-Oct-08 20:28N 26°06' W 080°07'0 0.0
2017-Oct-08 19:58N 26°06' W 080°07'0 0.0
2017-Oct-08 19:28N 26°06' W 080°07'0 0.0
2017-Oct-08 18:55N 26°06' W 080°07'0 0.0
2017-Oct-08 18:30N 26°06' W 080°07'0 0.0
2017-Oct-08 18:00N 26°06' W 080°07'0 0.0
2017-Oct-08 17:30N 26°06' W 080°07'0 0.0
2017-Oct-08 16:54N 26°06' W 080°07'0 0.0
2017-Oct-08 16:27N 26°06' W 080°07'0 0.0
2017-Oct-08 15:59N 26°06' W 080°07'0 0.0
2017-Oct-08 15:29N 26°06' W 080°07'0 0.0
2017-Oct-08 14:59N 26°06' W 080°07'0 0.0
2017-Oct-08 14:23N 26°06' W 080°07'0 0.0
2017-Oct-08 13:56N 26°06' W 080°07'0 0.0
2017-Oct-08 13:28N 26°06' W 080°07'0 0.0
2017-Oct-08 12:58N 26°06' W 080°07'0 0.0
2017-Oct-08 12:28N 26°06' W 080°07'0 0.0
2017-Oct-08 11:55N 26°06' W 080°07'0 0.0
2017-Oct-08 11:31N 26°06' W 080°07'0 0.0
2017-Oct-08 11:00N 26°06' W 080°07'6467.6
2017-Oct-08 11:00N 26°00' W 080°06'611.9 170 / 101014.0 5.4 27.522.228.0
2017-Oct-08 10:30N 26°06' W 080°07'0 0.0
2017-Oct-08 10:01N 26°06' W 080°07'0 0.0
2017-Oct-08 09:30N 26°06' W 080°07'2 3.4
2017-Oct-08 09:01N 26°06' W 080°06'4 8.7
2017-Oct-08 08:31N 26°05' W 080°01'611.8
2017-Oct-08 08:00N 26°02' W 079°55'815.8
2017-Oct-08 07:30N 25°56' W 079°49'816.1
2017-Oct-08 07:00N 25°51' W 079°42'918.9
2017-Oct-08 06:30N 25°42' W 079°41'919.0
2017-Oct-08 06:00N 25°32' W 079°40'918.8
2017-Oct-08 05:30N 25°23' W 079°39'1019.0
2017-Oct-08 05:00N 25°13' W 079°39'2218.6
2017-Oct-08 03:48N 24°51' W 079°34'3017.8
2017-Oct-08 02:05N 24°22' W 079°25'418.0
2017-Oct-08 01:54N 24°19' W 079°24'718.2
2017-Oct-08 01:30N 24°12' W 079°22'24617.0
2017-Oct-07 11:00N 21°30' W 076°00'   150 / 101013.0 5.4 28.022.029.0

Dump ship's entire track history